createdAt,value
2019-01-23T00:01:59.962Z,14.50
2019-01-23T00:04:30.771Z,14.50
2019-01-23T00:07:01.305Z,15.23
2019-01-23T00:09:31.931Z,14.43
2019-01-23T00:12:02.699Z,13.83
2019-01-23T00:14:33.288Z,14.13
2019-01-23T00:17:03.934Z,15.43
2019-01-23T00:19:34.759Z,15.58
2019-01-23T00:22:05.976Z,14.27
2019-01-23T00:24:36.530Z,13.90
2019-01-23T00:27:07.069Z,13.47
2019-01-23T00:29:37.891Z,13.90
2019-01-23T00:32:09.184Z,12.35
2019-01-23T00:34:39.804Z,11.67
2019-01-23T00:37:10.631Z,12.53
2019-01-23T00:39:41.119Z,11.97
2019-01-23T00:42:11.930Z,11.97
2019-01-23T00:44:42.439Z,12.87
2019-01-23T00:47:12.966Z,11.75
2019-01-23T00:49:43.832Z,12.18
2019-01-23T00:52:14.618Z,12.07
2019-01-23T00:54:45.162Z,12.20
2019-01-23T00:57:15.915Z,12.03
2019-01-23T00:59:46.440Z,12.50
2019-01-23T01:02:16.959Z,12.23
2019-01-23T01:04:47.525Z,12.27
2019-01-23T01:07:18.403Z,12.33
2019-01-23T01:09:49.081Z,13.13
2019-01-23T01:12:19.930Z,11.20
2019-01-23T01:14:50.462Z,12.17
2019-01-23T01:17:20.994Z,12.15
2019-01-23T01:19:51.493Z,12.40
2019-01-23T01:22:22.230Z,12.85
2019-01-23T01:24:53.008Z,11.73
2019-01-23T01:27:23.495Z,13.03
2019-01-23T01:29:54.009Z,13.33
2019-01-23T01:32:24.541Z,12.30
2019-01-23T01:34:55.062Z,13.33
2019-01-23T01:37:25.542Z,12.98
2019-01-23T01:39:56.221Z,13.20
2019-01-23T01:42:27.112Z,12.90
2019-01-23T01:44:57.932Z,13.03
2019-01-23T01:47:28.452Z,13.13
2019-01-23T01:49:58.991Z,12.93
2019-01-23T01:52:29.515Z,13.73
2019-01-23T01:55:00.249Z,13.63
2019-01-23T01:57:31.031Z,13.68
2019-01-23T02:00:01.531Z,13.07
2019-01-23T02:02:32.052Z,13.43
2019-01-23T02:05:02.556Z,13.63
2019-01-23T02:07:33.093Z,13.77
2019-01-23T02:10:04.047Z,12.70
2019-01-23T02:12:34.537Z,13.17
2019-01-23T02:15:05.862Z,14.60
2019-01-23T02:17:36.412Z,13.93
2019-01-23T02:20:14.202Z,14.00
2019-01-23T02:22:45.040Z,13.93
2019-01-23T02:25:15.854Z,12.98
2019-01-23T02:27:47.212Z,13.37
2019-01-23T02:30:20.796Z,13.15
2019-01-23T02:32:51.367Z,13.27
2019-01-23T02:35:22.129Z,13.03
2019-01-23T02:37:52.780Z,12.97
2019-01-23T02:40:24.702Z,13.28
2019-01-23T02:42:55.354Z,12.10
2019-01-23T02:45:26.189Z,14.58
2019-01-23T02:47:56.974Z,12.73
2019-01-23T02:50:27.522Z,15.20
2019-01-23T02:52:58.071Z,13.73
2019-01-23T02:55:28.661Z,13.87
2019-01-23T02:57:59.246Z,14.60
2019-01-23T03:00:29.774Z,13.87
2019-01-23T03:03:00.298Z,13.00
2019-01-23T03:05:31.073Z,13.40
2019-01-23T03:08:01.598Z,14.00
2019-01-23T03:10:32.176Z,13.47
2019-01-23T03:13:02.695Z,13.37
2019-01-23T03:15:33.427Z,13.10
2019-01-23T03:18:04.152Z,14.37
2019-01-23T03:20:34.627Z,13.07
2019-01-23T03:23:05.208Z,12.20
2019-01-23T03:25:35.706Z,11.67
2019-01-23T03:28:06.418Z,12.93
2019-01-23T03:30:36.974Z,13.73
2019-01-23T03:33:07.491Z,11.83
2019-01-23T03:35:38.168Z,13.77
2019-01-23T03:38:09.494Z,14.40
2019-01-23T03:40:40.315Z,12.40
2019-01-23T03:43:11.516Z,13.10
2019-01-23T03:45:42.333Z,13.73
2019-01-23T03:48:13.162Z,13.18
2019-01-23T03:50:43.832Z,13.87
2019-01-23T03:53:14.330Z,14.97
2019-01-23T03:55:45.131Z,12.75
2019-01-23T03:58:15.683Z,13.20
2019-01-23T04:00:46.398Z,12.97
2019-01-23T04:03:17.194Z,13.75
2019-01-23T04:05:47.748Z,13.13
2019-01-23T04:08:18.282Z,15.23
2019-01-23T04:10:48.799Z,13.60
2019-01-23T04:13:19.617Z,13.72
2019-01-23T04:15:50.417Z,13.43
2019-01-23T04:18:21.190Z,13.53
2019-01-23T04:20:51.672Z,13.60
2019-01-23T04:23:22.259Z,14.50
2019-01-23T04:25:52.763Z,13.00
2019-01-23T04:28:23.600Z,11.95
2019-01-23T04:30:54.416Z,14.43
2019-01-23T04:33:25.197Z,12.85
2019-01-23T04:35:55.725Z,14.13
2019-01-23T04:38:26.303Z,14.57
2019-01-23T04:40:56.830Z,13.23
2019-01-23T04:43:27.347Z,13.30
2019-01-23T04:45:57.868Z,15.07
2019-01-23T04:48:28.454Z,13.20
2019-01-23T04:51:21.295Z,12.95
2019-01-23T04:53:51.811Z,12.87
2019-01-23T04:56:22.340Z,13.67
2019-01-23T04:58:52.823Z,15.00
2019-01-23T05:01:23.700Z,13.13
2019-01-23T05:03:54.529Z,13.93
2019-01-23T05:06:25.311Z,14.18
2019-01-23T05:08:55.827Z,15.00
2019-01-23T05:11:27.874Z,14.50
2019-01-23T05:13:58.369Z,11.73
2019-01-23T05:16:28.944Z,15.00
2019-01-23T05:18:59.526Z,12.87
2019-01-23T05:21:30.070Z,12.87
2019-01-23T05:24:00.569Z,14.47
2019-01-23T05:26:31.438Z,13.73
2019-01-23T05:29:02.009Z,14.23
2019-01-23T05:31:32.551Z,14.47
2019-01-23T05:34:03.078Z,15.90
2019-01-23T05:36:33.629Z,16.17
2019-01-23T05:39:06.768Z,13.90
2019-01-23T05:41:37.456Z,14.43
2019-01-23T05:44:09.111Z,12.90
2019-01-23T05:46:39.593Z,13.20
2019-01-23T05:49:10.099Z,13.33
2019-01-23T05:51:40.646Z,13.90
2019-01-23T05:54:11.428Z,13.97
2019-01-23T05:56:41.955Z,13.10
2019-01-23T05:59:12.434Z,14.30
2019-01-23T06:01:42.985Z,13.40
2019-01-23T06:04:13.699Z,14.73
2019-01-23T06:06:44.498Z,13.58
2019-01-23T06:09:15.021Z,11.23
2019-01-23T06:11:45.570Z,12.97
2019-01-23T06:14:16.160Z,13.95
2019-01-23T06:16:46.649Z,13.23
2019-01-23T06:19:17.807Z,13.72
2019-01-23T06:21:48.682Z,12.37
2019-01-23T06:24:19.543Z,14.83
2019-01-23T06:26:50.078Z,13.77
2019-01-23T06:29:20.635Z,13.13
2019-01-23T06:31:51.405Z,14.63
2019-01-23T06:34:21.937Z,13.28
2019-01-23T06:36:52.744Z,12.00
2019-01-23T06:39:23.596Z,13.58
2019-01-23T06:41:54.101Z,11.87
2019-01-23T06:44:24.661Z,14.17
2019-01-23T06:46:55.484Z,12.85
2019-01-23T06:49:25.994Z,13.90
2019-01-23T06:51:56.718Z,13.30
2019-01-23T06:54:27.545Z,14.75
2019-01-23T06:56:58.049Z,15.10
2019-01-23T06:59:28.624Z,14.30
2019-01-23T07:01:59.283Z,13.50
2019-01-23T07:04:29.779Z,12.37
2019-01-23T07:07:00.309Z,14.90
2019-01-23T07:09:30.842Z,14.40
2019-01-23T07:12:01.618Z,14.73
2019-01-23T07:14:32.151Z,13.80
2019-01-23T07:17:03.318Z,14.47
2019-01-23T07:19:33.810Z,14.13
2019-01-23T07:22:04.497Z,13.53
2019-01-23T07:24:34.972Z,15.00
2019-01-23T07:27:05.719Z,14.97
2019-01-23T07:29:36.520Z,15.05
2019-01-23T07:32:07.243Z,14.87
2019-01-23T07:34:37.773Z,12.67
2019-01-23T07:37:09.988Z,15.44
2019-01-23T07:39:40.750Z,15.75
2019-01-23T07:42:11.283Z,14.50
2019-01-23T07:44:41.807Z,15.50
2019-01-23T07:47:12.684Z,14.15
2019-01-23T07:49:43.203Z,14.97
2019-01-23T07:52:13.958Z,14.78
2019-01-23T07:54:44.787Z,15.23
2019-01-23T07:57:15.324Z,16.57
2019-01-23T07:59:45.866Z,14.70
2019-01-23T08:02:18.002Z,15.57
2019-01-23T08:04:48.730Z,15.53
2019-01-23T08:07:19.270Z,15.00
2019-01-23T08:09:49.951Z,17.03
2019-01-23T08:12:20.764Z,16.70
2019-01-23T08:14:51.302Z,16.17
2019-01-23T08:17:21.817Z,15.05
2019-01-23T08:19:52.452Z,17.17
2019-01-23T08:22:23.037Z,15.70
2019-01-23T08:24:53.852Z,16.52
2019-01-23T08:27:24.355Z,14.93
2019-01-23T08:29:54.867Z,15.33
2019-01-23T08:32:25.453Z,16.10
2019-01-23T08:34:55.997Z,15.77
2019-01-23T08:37:27.099Z,17.48
2019-01-23T08:39:57.971Z,16.27
2019-01-23T08:42:28.527Z,17.87
2019-01-23T08:44:59.080Z,16.90
2019-01-23T08:47:29.855Z,17.60
2019-01-23T08:50:00.407Z,15.80
2019-01-23T08:52:30.916Z,16.23
2019-01-23T08:55:01.421Z,17.53
2019-01-23T08:57:31.997Z,17.40
2019-01-23T09:00:02.883Z,15.53
2019-01-23T09:02:33.404Z,16.93
2019-01-23T09:05:04.542Z,16.00
2019-01-23T09:07:35.137Z,16.67
2019-01-23T09:10:09.628Z,16.67
2019-01-23T09:12:40.124Z,17.60
2019-01-23T09:15:12.313Z,16.40
2019-01-23T09:17:42.855Z,18.07
2019-01-23T09:20:15.724Z,17.17
2019-01-23T09:22:46.335Z,16.43
2019-01-23T09:25:19.569Z,15.50
2019-01-23T09:27:50.139Z,16.20
2019-01-23T09:30:34.047Z,16.90
2019-01-23T09:33:45.673Z,17.57
2019-01-23T09:37:07.673Z,15.57
2019-01-23T09:40:25.387Z,17.23
2019-01-23T09:43:59.113Z,16.90
2019-01-23T09:47:24.987Z,15.00
2019-01-23T09:50:58.627Z,14.40
2019-01-23T09:53:39.952Z,15.03
2019-01-23T09:56:11.161Z,16.93
2019-01-23T09:58:42.112Z,17.00
2019-01-23T10:01:12.627Z,17.27
2019-01-23T10:03:43.181Z,14.83
2019-01-23T10:06:13.976Z,14.97
2019-01-23T10:08:45.808Z,15.20
2019-01-23T10:11:16.385Z,16.70
2019-01-23T10:13:46.961Z,15.30
2019-01-23T10:16:20.281Z,15.00
2019-01-23T10:18:56.033Z,15.28
2019-01-23T10:21:23.520Z,13.77
2019-01-23T10:23:54.079Z,15.37
2019-01-23T10:26:24.674Z,16.23
2019-01-23T10:28:55.319Z,17.53
2019-01-23T10:31:26.171Z,14.37
2019-01-23T10:33:56.768Z,15.33
2019-01-23T10:36:27.441Z,16.90
2019-01-23T10:38:58.100Z,15.93
2019-01-23T10:41:31.643Z,15.27
2019-01-23T10:44:02.235Z,16.73
2019-01-23T10:46:33.041Z,15.90
2019-01-23T10:49:03.574Z,15.30
2019-01-23T10:51:34.265Z,14.80
2019-01-23T10:54:05.220Z,15.53
2019-01-23T10:56:36.167Z,13.83
2019-01-23T10:59:06.693Z,14.80
2019-01-23T11:01:37.258Z,14.90
2019-01-23T11:04:07.957Z,13.60
2019-01-23T11:06:38.501Z,13.10
2019-01-23T11:09:10.919Z,14.90
2019-01-23T11:11:41.466Z,15.43
2019-01-23T11:14:12.120Z,14.60
2019-01-23T11:16:42.668Z,13.90
2019-01-23T11:19:13.625Z,14.77
2019-01-23T11:21:44.337Z,15.90
2019-01-23T11:24:15.233Z,15.63
2019-01-23T11:26:46.061Z,14.38
2019-01-23T11:29:16.639Z,17.40
2019-01-23T11:31:47.195Z,15.63
2019-01-23T11:34:17.784Z,16.30
2019-01-23T11:36:48.352Z,14.10
2019-01-23T11:39:19.195Z,16.05
2019-01-23T11:41:49.701Z,14.97
2019-01-23T11:44:20.209Z,13.58
2019-01-23T11:46:50.768Z,14.70
2019-01-23T11:49:21.450Z,15.93
2019-01-23T11:51:52.312Z,15.03
2019-01-23T11:54:25.889Z,14.50
2019-01-23T11:56:56.443Z,15.63
2019-01-23T11:59:27.346Z,13.70
2019-01-23T12:01:58.245Z,15.27
2019-01-23T12:04:28.775Z,15.43
2019-01-23T12:06:59.428Z,15.43
2019-01-23T12:09:30.264Z,14.58
2019-01-23T12:12:00.803Z,15.77
2019-01-23T12:14:31.323Z,17.10
2019-01-23T12:17:02.146Z,16.27
2019-01-23T12:19:33.007Z,16.53
2019-01-23T12:22:03.589Z,17.00
2019-01-23T12:24:34.366Z,17.00
2019-01-23T12:27:05.287Z,15.07
2019-01-23T12:29:36.096Z,20.43
2019-01-23T12:32:06.882Z,32.73
2019-01-23T12:34:37.432Z,18.53
2019-01-23T12:37:08.050Z,15.07
2019-01-23T12:39:38.584Z,16.70
2019-01-23T12:42:10.722Z,16.30
2019-01-23T12:44:41.363Z,15.67
2019-01-23T12:47:12.246Z,15.95
2019-01-23T12:49:42.839Z,16.63
2019-01-23T12:52:13.747Z,15.20
2019-01-23T12:54:44.421Z,15.70
2019-01-23T12:57:15.285Z,15.72
2019-01-23T12:59:45.801Z,15.87
2019-01-23T13:02:16.348Z,16.55
2019-01-23T13:04:47.194Z,14.03
2019-01-23T13:07:17.996Z,15.40
2019-01-23T13:09:48.591Z,15.33
2019-01-23T13:12:19.438Z,15.10
2019-01-23T13:14:50.268Z,14.68
2019-01-23T13:17:20.807Z,15.85
2019-01-23T13:19:51.381Z,14.67
2019-01-23T13:22:22.015Z,15.28
2019-01-23T13:24:52.713Z,15.30
2019-01-23T13:27:23.575Z,16.73
2019-01-23T13:29:54.387Z,16.73
2019-01-23T13:32:24.903Z,14.38
2019-01-23T13:34:55.457Z,16.70
2019-01-23T13:37:26.679Z,18.80
2019-01-23T13:39:57.488Z,17.50
2019-01-23T13:42:28.504Z,18.02
2019-01-23T13:44:59.384Z,19.73
2019-01-23T13:47:29.924Z,19.23
2019-01-23T13:50:00.507Z,18.53
2019-01-23T13:52:31.406Z,17.17
2019-01-23T13:55:02.137Z,17.37
2019-01-23T13:57:32.609Z,20.23
2019-01-23T14:00:03.752Z,17.53
2019-01-23T14:02:34.404Z,15.37
2019-01-23T14:05:05.522Z,18.53
2019-01-23T14:07:36.380Z,18.27
2019-01-23T14:10:09.548Z,16.67
2019-01-23T14:12:40.146Z,16.27
2019-01-23T14:15:16.442Z,16.97
2019-01-23T14:17:47.007Z,17.13
2019-01-23T14:20:18.063Z,17.73
2019-01-23T14:22:48.612Z,16.73
2019-01-23T14:25:19.246Z,17.13
2019-01-23T14:27:49.822Z,15.77
2019-01-23T14:30:44.837Z,15.60
2019-01-23T14:33:15.661Z,17.73
2019-01-23T14:35:47.679Z,16.17
2019-01-23T14:38:18.510Z,15.35
2019-01-23T14:40:49.120Z,17.50
2019-01-23T14:43:19.760Z,17.02
2019-01-23T14:45:50.604Z,17.05
2019-01-23T14:48:21.540Z,17.60
2019-01-23T14:50:52.107Z,17.10
2019-01-23T14:53:22.671Z,16.93
2019-01-23T14:55:53.545Z,17.32
2019-01-23T14:58:24.136Z,15.90
2019-01-23T15:00:54.731Z,18.57
2019-01-23T15:03:25.566Z,15.80
2019-01-23T15:05:56.199Z,16.60
2019-01-23T15:08:26.779Z,15.88
2019-01-23T15:10:57.631Z,17.03
2019-01-23T15:13:28.859Z,16.25
2019-01-23T15:16:00.114Z,17.33
2019-01-23T15:18:30.780Z,18.43
2019-01-23T15:21:01.626Z,17.80
2019-01-23T15:23:32.574Z,16.80
2019-01-23T15:26:03.183Z,16.77
2019-01-23T15:28:33.806Z,17.57
2019-01-23T15:31:04.363Z,17.77
2019-01-23T15:33:34.921Z,17.00
2019-01-23T15:36:05.900Z,16.33
2019-01-23T15:38:36.648Z,17.40
2019-01-23T15:41:07.209Z,17.87
2019-01-23T15:43:37.752Z,17.43
2019-01-23T15:46:08.449Z,18.17
2019-01-23T15:48:39.356Z,17.40
2019-01-23T15:51:11.640Z,18.92
2019-01-23T15:53:42.184Z,18.60
2019-01-23T15:56:12.752Z,15.87
2019-01-23T15:58:43.658Z,17.23
2019-01-23T16:01:14.557Z,16.83
2019-01-23T16:03:46.954Z,16.50
2019-01-23T16:06:19.368Z,17.20
2019-01-23T16:08:51.573Z,16.50
2019-01-23T16:11:22.222Z,16.13
2019-01-23T16:13:52.864Z,17.30
2019-01-23T16:16:24.104Z,17.27
2019-01-23T16:18:55.762Z,16.03
2019-01-23T16:21:26.371Z,17.83
2019-01-23T16:23:56.952Z,16.17
2019-01-23T16:26:29.851Z,16.10
2019-01-23T16:29:02.206Z,17.53
2019-01-23T16:31:34.458Z,16.63
2019-01-23T16:34:05.099Z,17.20
2019-01-23T16:36:35.990Z,18.00
2019-01-23T16:39:09.405Z,15.83
2019-01-23T16:41:40.209Z,16.37
2019-01-23T16:44:11.263Z,15.80
2019-01-23T16:46:41.865Z,18.90
2019-01-23T16:49:13.086Z,27.40
2019-01-23T16:51:44.032Z,20.80
2019-01-23T16:54:15.248Z,16.37
2019-01-23T16:56:46.142Z,16.53
2019-01-23T16:59:17.436Z,16.45
2019-01-23T17:01:48.145Z,16.43
2019-01-23T17:04:18.974Z,16.80
2019-01-23T17:06:49.628Z,15.90
2019-01-23T17:09:20.187Z,17.60
2019-01-23T17:11:50.913Z,19.27
2019-01-23T17:14:23.041Z,17.87
2019-01-23T17:16:55.356Z,18.50
2019-01-23T17:19:26.233Z,18.33
2019-01-23T17:21:57.002Z,18.00
2019-01-23T17:24:27.855Z,17.90
2019-01-23T17:27:00.612Z,18.73
2019-01-23T17:29:31.184Z,18.93
2019-01-23T17:32:01.911Z,16.77
2019-01-23T17:34:32.559Z,17.50
2019-01-23T17:37:03.136Z,17.80
2019-01-23T17:39:33.869Z,19.53
2019-01-23T17:42:04.569Z,16.00
2019-01-23T17:44:35.191Z,17.63
2019-01-23T17:47:07.788Z,16.87
2019-01-23T17:49:38.433Z,15.53
2019-01-23T17:52:09.029Z,18.07
2019-01-23T17:54:39.920Z,18.50
2019-01-23T17:57:11.329Z,20.48
2019-01-23T17:59:41.899Z,18.87
2019-01-23T18:02:13.742Z,19.27
2019-01-23T18:04:51.255Z,18.30
2019-01-23T18:07:22.829Z,17.65
2019-01-23T18:10:03.777Z,17.03
2019-01-23T18:12:34.601Z,16.50
2019-01-23T18:15:07.713Z,17.10
2019-01-23T18:17:38.361Z,20.47
2019-01-23T18:20:18.252Z,15.37
2019-01-23T18:22:51.196Z,15.45
2019-01-23T18:25:23.210Z,16.02
2019-01-23T18:27:54.130Z,18.27
2019-01-23T18:31:17.712Z,15.88
2019-01-23T18:34:35.870Z,16.13
2019-01-23T18:37:26.491Z,18.97
2019-01-23T18:40:47.134Z,15.77
2019-01-23T18:44:21.968Z,16.10
2019-01-23T18:47:28.631Z,16.93
2019-01-23T18:50:58.709Z,16.60
2019-01-23T18:53:29.298Z,16.90
2019-01-23T18:56:02.693Z,15.47
2019-01-23T18:58:33.231Z,16.33
2019-01-23T19:01:04.027Z,16.60
2019-01-23T19:03:34.866Z,17.12
2019-01-23T19:06:05.602Z,20.83
2019-01-23T19:08:37.987Z,16.57
2019-01-23T19:11:10.086Z,15.70
2019-01-23T19:13:42.682Z,17.10
2019-01-23T19:16:13.581Z,16.97
2019-01-23T19:18:44.173Z,16.60
2019-01-23T19:21:15.426Z,17.23
2019-01-23T19:23:46.242Z,18.10
2019-01-23T19:26:17.152Z,16.80
2019-01-23T19:28:48.092Z,16.53
2019-01-23T19:31:19.056Z,16.45
2019-01-23T19:33:49.776Z,17.33
2019-01-23T19:36:20.697Z,17.37
2019-01-23T19:38:51.434Z,18.33
2019-01-23T19:41:22.346Z,18.50
2019-01-23T19:43:53.173Z,18.60
2019-01-23T19:46:24.067Z,16.87
2019-01-23T19:48:54.656Z,17.27
2019-01-23T19:51:25.333Z,17.73
2019-01-23T19:53:56.267Z,19.20
2019-01-23T19:56:27.111Z,16.93
2019-01-23T19:58:57.734Z,16.17
2019-01-23T20:01:28.344Z,17.47
2019-01-23T20:03:59.149Z,18.47
2019-01-23T20:06:29.795Z,17.67
2019-01-23T20:09:00.458Z,17.60
2019-01-23T20:11:31.400Z,16.33
2019-01-23T20:14:02.173Z,16.83
2019-01-23T20:16:33.109Z,18.30
2019-01-23T20:19:07.698Z,18.63
2019-01-23T20:21:38.310Z,17.57
2019-01-23T20:24:08.917Z,17.33
2019-01-23T20:26:41.519Z,17.67
2019-01-23T20:29:12.371Z,18.57
2019-01-23T20:31:43.205Z,17.10
2019-01-23T20:34:13.904Z,16.80
2019-01-23T20:36:44.511Z,18.60
2019-01-23T20:39:15.593Z,17.15
2019-01-23T20:41:46.393Z,18.97
2019-01-23T20:44:17.241Z,18.62
2019-01-23T20:46:48.163Z,17.40
2019-01-23T20:49:18.752Z,17.87
2019-01-23T20:51:49.453Z,18.87
2019-01-23T20:54:20.401Z,17.10
2019-01-23T20:56:51.234Z,17.07
2019-01-23T20:59:21.796Z,18.62
2019-01-23T21:01:52.436Z,18.97
2019-01-23T21:04:23.634Z,17.20
2019-01-23T21:06:54.467Z,17.23
2019-01-23T21:09:25.412Z,18.20
2019-01-23T21:11:56.318Z,19.10
2019-01-23T21:14:27.285Z,17.85
2019-01-23T21:16:58.114Z,17.02
2019-01-23T21:19:29.180Z,18.90
2019-01-23T21:21:59.767Z,17.60
2019-01-23T21:24:30.494Z,19.37
2019-01-23T21:27:01.269Z,18.77
2019-01-23T21:29:32.266Z,20.23
2019-01-23T21:32:02.815Z,19.00
2019-01-23T21:34:33.392Z,17.93
2019-01-23T21:37:04.063Z,19.27
2019-01-23T21:39:34.654Z,19.43
2019-01-23T21:42:05.340Z,18.73
2019-01-23T21:44:36.230Z,20.70
2019-01-23T21:47:06.846Z,20.23
2019-01-23T21:49:37.408Z,20.47
2019-01-23T21:52:08.153Z,20.20
2019-01-23T21:54:38.733Z,18.20
2019-01-23T21:57:09.672Z,18.20
2019-01-23T21:59:40.363Z,19.07
2019-01-23T22:02:11.656Z,17.73
2019-01-23T22:04:42.344Z,17.10
2019-01-23T22:07:13.613Z,16.57
2019-01-23T22:09:44.606Z,18.37
2019-01-23T22:12:15.567Z,17.03
2019-01-23T22:14:46.295Z,17.67
2019-01-23T22:17:16.902Z,18.17
2019-01-23T22:19:47.530Z,16.40
2019-01-23T22:22:18.352Z,17.43
2019-01-23T22:24:48.856Z,17.03
2019-01-23T22:27:19.727Z,18.43
2019-01-23T22:29:50.396Z,17.27
2019-01-23T22:32:20.936Z,17.70
2019-01-23T22:34:51.601Z,17.03
2019-01-23T22:37:22.424Z,16.60
2019-01-23T22:39:53.019Z,15.90
2019-01-23T22:42:23.755Z,15.73
2019-01-23T22:44:54.374Z,17.03
2019-01-23T22:47:24.932Z,17.40
2019-01-23T22:49:55.490Z,16.10
2019-01-23T22:52:26.644Z,16.20
2019-01-23T22:54:57.487Z,16.33
2019-01-23T22:57:28.340Z,16.82
2019-01-23T22:59:58.878Z,16.80
2019-01-23T23:02:29.503Z,15.63
2019-01-23T23:05:00.378Z,16.53
2019-01-23T23:07:30.908Z,16.47
2019-01-23T23:10:01.652Z,15.70
2019-01-23T23:12:32.587Z,16.00
2019-01-23T23:15:03.465Z,17.17
2019-01-23T23:17:34.287Z,17.55
2019-01-23T23:20:05.598Z,16.30
2019-01-23T23:22:36.408Z,15.77
2019-01-23T23:25:08.040Z,16.50
2019-01-23T23:27:39.567Z,17.13
2019-01-23T23:30:13.682Z,15.80
2019-01-23T23:32:44.454Z,16.70
2019-01-23T23:35:15.037Z,17.07
2019-01-23T23:37:45.597Z,16.00
2019-01-23T23:40:16.409Z,16.10
2019-01-23T23:42:46.959Z,16.43
2019-01-23T23:45:18.005Z,15.70
2019-01-23T23:47:48.665Z,17.27
2019-01-23T23:50:19.786Z,17.95
2019-01-23T23:52:50.477Z,18.30
2019-01-23T23:55:21.326Z,17.25
2019-01-23T23:57:51.824Z,17.30
